createdAt,value
2018-01-25T00:00:04.487Z,969.51
2018-01-25T00:15:05.176Z,969.32
2018-01-25T00:30:07.779Z,969.48
2018-01-25T00:45:05.347Z,969.35
2018-01-25T01:00:05.450Z,968.57
2018-01-25T01:15:04.907Z,968.57
2018-01-25T01:30:04.845Z,968.62
2018-01-25T01:45:04.503Z,968.51
2018-01-25T02:00:05.270Z,968.48
2018-01-25T02:15:08.409Z,968.27
2018-01-25T02:30:05.147Z,967.81
2018-01-25T02:45:04.633Z,966.95
2018-01-25T03:00:05.787Z,967.11
2018-01-25T03:15:04.810Z,967.19
2018-01-25T03:30:04.603Z,967.43
2018-01-25T03:45:05.065Z,967.49
2018-01-25T04:00:04.969Z,967.57
2018-01-25T04:15:04.645Z,967.7
2018-01-25T04:30:05.096Z,967.76
2018-01-25T04:45:06.377Z,967.84
2018-01-25T05:00:04.970Z,967.73
2018-01-25T05:15:05.048Z,967.7
2018-01-25T05:30:05.406Z,967.78
2018-01-25T05:45:04.907Z,967.67
2018-01-25T06:00:04.809Z,967.73
2018-01-25T06:15:05.180Z,968.03
2018-01-25T06:30:04.365Z,968.11
2018-01-25T06:45:05.263Z,968.21
2018-01-25T07:00:04.657Z,968.35
2018-01-25T07:15:12.225Z,960.96
2018-01-25T07:30:04.325Z,968.3
2018-01-25T07:45:04.804Z,967.97
2018-01-25T08:00:06.277Z,967.76
2018-01-25T08:15:07.833Z,967.62
2018-01-25T08:30:04.410Z,967.16
2018-01-25T08:45:04.806Z,966.78
2018-01-25T09:00:08.789Z,966.46
2018-01-25T09:15:05.218Z,965.38
2018-01-25T09:30:04.313Z,964.54
2018-01-25T09:45:08.374Z,963.44
2018-01-25T10:00:08.457Z,962.79
2018-01-25T10:15:04.426Z,962.36
2018-01-25T10:30:04.624Z,961.57
2018-01-25T10:45:05.013Z,961.41
2018-01-25T11:00:04.428Z,961.09
2018-01-25T11:15:06.343Z,960.74
2018-01-25T11:30:05.066Z,960.39
2018-01-25T11:45:05.608Z,960.31
2018-01-25T12:00:06.547Z,959.98
2018-01-25T12:15:08.033Z,959.17
2018-01-25T12:30:20.016Z,958.77
2018-01-25T12:45:04.873Z,958.47
2018-01-25T13:00:04.912Z,958.31
2018-01-25T13:15:05.892Z,958.12
2018-01-25T13:30:05.008Z,957.9
2018-01-25T13:45:04.377Z,957.69
2018-01-25T14:00:04.834Z,957.61
2018-01-25T14:15:05.239Z,957.82
2018-01-25T14:30:04.417Z,958.07
2018-01-25T14:45:04.823Z,957.85
2018-01-25T15:00:06.254Z,958.12
2018-01-25T15:15:05.111Z,958.5
2018-01-25T15:30:04.766Z,958.71
2018-01-25T15:45:05.186Z,959.01
2018-01-25T16:00:04.639Z,959.12
2018-01-25T16:15:06.170Z,959.33
2018-01-25T16:30:04.764Z,959.58
2018-01-25T16:45:05.143Z,959.9
2018-01-25T17:00:05.045Z,960.22
2018-01-25T17:15:04.925Z,960.47
2018-01-25T17:30:05.044Z,960.66
2018-01-25T17:45:04.950Z,960.76
2018-01-25T18:00:04.813Z,960.98
2018-01-25T18:15:05.179Z,961.06
2018-01-25T18:30:04.705Z,961.09
2018-01-25T18:45:04.767Z,961.09
2018-01-25T19:00:04.671Z,961.52
2018-01-25T19:15:05.022Z,961.76
2018-01-25T19:30:04.633Z,961.76
2018-01-25T19:45:05.425Z,961.76
2018-01-25T20:00:04.366Z,961.63
2018-01-25T20:15:05.269Z,961.95
2018-01-25T20:30:04.384Z,962.33
2018-01-25T20:45:04.753Z,962.09
2018-01-25T21:00:05.124Z,962.17
2018-01-25T21:15:04.993Z,962.57
2018-01-25T21:30:04.570Z,962.49
2018-01-25T21:45:04.881Z,962.28
2018-01-25T22:00:11.949Z,962.36
2018-01-25T22:15:04.985Z,962.44
2018-01-25T22:30:06.011Z,962.84
2018-01-25T22:45:04.558Z,962.79
2018-01-25T23:00:04.661Z,962.65
2018-01-25T23:15:06.340Z,962.71
2018-01-25T23:30:05.644Z,962.95
2018-01-25T23:45:04.937Z,962.73
